Westville Lake, Ohio
Current Conditions -  °F | °C
As of 2:51 PM on Friday 19 Dec 2014 (Local Time) from KCAK Reporting Station
Overcast Overcast  
Wind Chill: 26°   Ceiling: 2100
Heat Index: 31°   Visibility: 10mi
Dew Point: 24°   Wind: 5mph
Humidity: 76%   Direction: NA
Pressure: 30.21"   Gusts: NA
Location:  40.915°N, 80.9865°W
Report Text: KCAK 191951Z VRB04KT 10SM OVC021 M01/M04 A3021 RMK AO2 SLP242 T10061044
Loading
Personal Weather Stations






























Interactive Weather Map New forecast layout! Learn more

10-Day Weather Forecast

Advertisements
Track Severe Weather on mobile